NCAR-RAP Real-Time Weather Data

Output produced by METARs form (17 October 2018  16:53 UTC)
found at http://weather.rap.ucar.edu/surface/
 
RJFU 171200Z 02009KT CAVOK 18/13 Q1014
RJFU 171100Z 01011KT CAVOK 18/13 Q1013
RJFU 171000Z 01009KT CAVOK 19/13 Q1013
RJFU 170900Z 03009KT 9999 FEW040 BKN/// 20/13 Q1012
RJFU 170800Z 01012KT 9999 FEW040 BKN/// 21/13 Q1012
RJFU 170700Z 35012KT 9999 FEW040 BKN/// 22/12 Q1012
RJFU 170600Z 34013KT 9999 FEW040 BKN/// 23/11 Q1011
RJFU 170500Z 33014KT 9999 FEW040 BKN/// 23/12 Q1011
RJFU 170400Z 34010KT 9999 FEW035 SCT050 BKN/// 24/12 Q1012
RJFU 170300Z 32009KT 290V360 9999 SCT040 BKN/// 22/12 Q1012
RJFU 170200Z 35010KT 9999 FEW040 BKN/// 23/12 Q1013
RJFU 170100Z 34008KT 9999 FEW030 BKN/// 21/13 Q1013
RJFU 170000Z 01005KT 340V060 9999 FEW030 BKN/// 20/13 Q1013
RJFU 162300Z VRB02KT 9999 FEW030 BKN/// 18/11 Q1013
RJFU 162200Z 35007KT 9999 FEW030 BKN070 BKN/// 17/13 Q1013
RJFU 162110Z 35009KT 9999 FEW040 SCT060 BKN070 17/13 Q1012 RMK 1CU040 3SC060 6AC070 A2990
RJFU 161200Z 34003KT 300V020 9999 FEW030 BKN100 18/11 Q1011
RJFU 161100Z 01012KT 9999 FEW030 BKN100 19/12 Q1011
RJFU 161000Z 01011KT 9999 FEW030 BKN100 19/13 Q1012
RJFU 160900Z 36014KT 9999 -RA FEW030 SCT090 BKN110 20/13 Q1011
RJFU 160800Z 35014KT 9999 FEW040 BKN110 20/12 Q1011
RJFU 160700Z 36013KT 9999 FEW040 BKN120 21/12 Q1011
RJFU 160600Z 33014KT 9999 FEW040 BKN130 22/14 Q1010
RJFU 160500Z 32005KT 260V360 9999 FEW040 BKN130 BKN/// 23/09 Q1011
RJFU 160400Z 27006KT 230V300 9999 FEW040 SCT130 BKN/// 23/11 Q1011
RJFU 160300Z 16003KT 9999 FEW040 BKN130 BKN/// 23/12 Q1012
RJFU 160200Z 21004KT 170V240 9999 FEW040 BKN140 BKN/// 22/14 Q1013
RJFU 160100Z 25004KT 190V310 9999 FEW040 SCT/// 20/13 Q1014
RJFU 160000Z VRB01KT CAVOK 18/14 Q1014
RJFU 152300Z 13003KT CAVOK 17/13 Q1015
RJFU 152200Z 11005KT CAVOK 16/13 Q1014
RJFU 152110Z 14005KT CAVOK 16/13 Q1014 RMK A2996
RJFU 151237Z 05006KT 360V090 CAVOK 18/12 Q1016 RMK A3002
RJFU 151200Z 35010KT CAVOK 18/11 Q1016
RJFU 151100Z 35009KT CAVOK 18/11 Q1016
RJFU 151000Z 02009KT CAVOK 19/11 Q1016
RJFU 150900Z 01009KT 9999 FEW050 20/11 Q1016
RJFU 150800Z 36010KT 9999 FEW040 SCT/// 22/12 Q1016
RJFU 150700Z 35008KT 9999 FEW040 BKN/// 23/12 Q1015
RJFU 150600Z 36008KT 9999 FEW040 BKN/// 24/12 Q1016
RJFU 150500Z 31008KT 260V350 9999 FEW040 BKN/// 24/12 Q1016